sensor_id;sensor_type;location;lat;lon;timestamp;temperature;humidity
9271;DHT22;4673;53.458;9.940;2023-12-20T00:02:17;4.70;99.90
9271;DHT22;4673;53.458;9.940;2023-12-20T00:04:43;4.70;99.90
9271;DHT22;4673;53.458;9.940;2023-12-20T00:07:08;4.70;99.90
9271;DHT22;4673;53.458;9.940;2023-12-20T00:09:34;4.60;99.90
9271;DHT22;4673;53.458;9.940;2023-12-20T00:11:59;4.60;99.90
9271;DHT22;4673;53.458;9.940;2023-12-20T00:14:25;4.60;99.90
9271;DHT22;4673;53.458;9.940;2023-12-20T00:16:51;4.60;99.90
9271;DHT22;4673;53.458;9.940;2023-12-20T00:19:16;4.60;99.90
9271;DHT22;4673;53.458;9.940;2023-12-20T00:21:42;4.60;99.90
9271;DHT22;4673;53.458;9.940;2023-12-20T00:24:08;4.50;99.90
9271;DHT22;4673;53.458;9.940;2023-12-20T00:26:33;4.40;99.90
9271;DHT22;4673;53.458;9.940;2023-12-20T00:28:59;4.40;99.90
9271;DHT22;4673;53.458;9.940;2023-12-20T00:31:25;4.40;99.90
9271;DHT22;4673;53.458;9.940;2023-12-20T00:33:51;4.40;99.90
9271;DHT22;4673;53.458;9.940;2023-12-20T00:36:16;4.50;99.90
9271;DHT22;4673;53.458;9.940;2023-12-20T00:38:42;4.50;99.90
9271;DHT22;4673;53.458;9.940;2023-12-20T00:41:07;4.60;99.90
9271;DHT22;4673;53.458;9.940;2023-12-20T00:43:33;4.80;99.90
9271;DHT22;4673;53.458;9.940;2023-12-20T00:45:59;4.80;99.90
9271;DHT22;4673;53.458;9.940;2023-12-20T00:48:25;5.00;99.90
9271;DHT22;4673;53.458;9.940;2023-12-20T00:50:52;5.00;99.90
9271;DHT22;4673;53.458;9.940;2023-12-20T00:53:18;5.10;99.90
9271;DHT22;4673;53.458;9.940;2023-12-20T00:55:44;5.10;99.90
9271;DHT22;4673;53.458;9.940;2023-12-20T00:58:10;5.10;99.90
9271;DHT22;4673;53.458;9.940;2023-12-20T01:00:36;5.10;99.90
9271;DHT22;4673;53.458;9.940;2023-12-20T01:03:01;5.10;99.90
9271;DHT22;4673;53.458;9.940;2023-12-20T01:05:27;5.10;99.90
9271;DHT22;4673;53.458;9.940;2023-12-20T01:07:53;5.00;99.90
9271;DHT22;4673;53.458;9.940;2023-12-20T01:10:18;4.90;99.90
9271;DHT22;4673;53.458;9.940;2023-12-20T01:12:44;4.90;99.90
9271;DHT22;4673;53.458;9.940;2023-12-20T01:15:10;4.80;99.90
9271;DHT22;4673;53.458;9.940;2023-12-20T01:17:35;4.70;99.90
9271;DHT22;4673;53.458;9.940;2023-12-20T01:20:02;4.70;99.90
9271;DHT22;4673;53.458;9.940;2023-12-20T01:22:27;4.70;99.90
9271;DHT22;4673;53.458;9.940;2023-12-20T01:24:53;4.60;99.90
9271;DHT22;4673;53.458;9.940;2023-12-20T01:27:19;4.50;99.90
9271;DHT22;4673;53.458;9.940;2023-12-20T01:29:44;4.40;99.90
9271;DHT22;4673;53.458;9.940;2023-12-20T01:32:10;4.40;99.90
9271;DHT22;4673;53.458;9.940;2023-12-20T01:34:35;4.40;99.90
9271;DHT22;4673;53.458;9.940;2023-12-20T01:37:01;4.40;99.90
9271;DHT22;4673;53.458;9.940;2023-12-20T01:39:28;4.40;99.90
9271;DHT22;4673;53.458;9.940;2023-12-20T01:41:53;4.30;99.90
9271;DHT22;4673;53.458;9.940;2023-12-20T01:44:19;4.30;99.90
9271;DHT22;4673;53.458;9.940;2023-12-20T01:46:45;4.30;99.90
9271;DHT22;4673;53.458;9.940;2023-12-20T01:49:12;4.30;99.90
9271;DHT22;4673;53.458;9.940;2023-12-20T01:51:38;4.20;99.90
9271;DHT22;4673;53.458;9.940;2023-12-20T01:54:04;4.20;99.90
9271;DHT22;4673;53.458;9.940;2023-12-20T01:56:31;4.30;99.90
9271;DHT22;4673;53.458;9.940;2023-12-20T01:58:57;4.40;99.90
9271;DHT22;4673;53.458;9.940;2023-12-20T02:01:23;4.30;99.90
9271;DHT22;4673;53.458;9.940;2023-12-20T02:03:50;4.30;99.90
9271;DHT22;4673;53.458;9.940;2023-12-20T02:06:17;4.30;99.90
9271;DHT22;4673;53.458;9.940;2023-12-20T02:08:43;4.30;99.90
9271;DHT22;4673;53.458;9.940;2023-12-20T02:11:10;4.30;99.90
9271;DHT22;4673;53.458;9.940;2023-12-20T02:13:35;4.20;99.90
9271;DHT22;4673;53.458;9.940;2023-12-20T02:16:01;4.20;99.90
9271;DHT22;4673;53.458;9.940;2023-12-20T02:18:27;4.20;99.90
9271;DHT22;4673;53.458;9.940;2023-12-20T02:20:52;4.20;99.90
9271;DHT22;4673;53.458;9.940;2023-12-20T02:23:18;4.20;99.90
9271;DHT22;4673;53.458;9.940;2023-12-20T02:25:44;4.30;99.90
9271;DHT22;4673;53.458;9.940;2023-12-20T02:28:10;4.20;99.90
9271;DHT22;4673;53.458;9.940;2023-12-20T02:30:35;4.30;99.90
9271;DHT22;4673;53.458;9.940;2023-12-20T02:33:01;4.30;99.90
9271;DHT22;4673;53.458;9.940;2023-12-20T02:35:29;4.40;99.90
9271;DHT22;4673;53.458;9.940;2023-12-20T02:37:54;4.40;99.90
9271;DHT22;4673;53.458;9.940;2023-12-20T02:40:20;4.40;99.90
9271;DHT22;4673;53.458;9.940;2023-12-20T02:42:45;4.40;99.90
9271;DHT22;4673;53.458;9.940;2023-12-20T02:45:11;4.40;99.90
9271;DHT22;4673;53.458;9.940;2023-12-20T02:47:36;4.40;99.90
9271;DHT22;4673;53.458;9.940;2023-12-20T02:50:02;4.30;99.90
9271;DHT22;4673;53.458;9.940;2023-12-20T02:52:29;4.30;99.90
9271;DHT22;4673;53.458;9.940;2023-12-20T02:54:54;4.30;99.90
9271;DHT22;4673;53.458;9.940;2023-12-20T02:57:20;4.30;99.90
9271;DHT22;4673;53.458;9.940;2023-12-20T02:59:46;4.30;99.90
9271;DHT22;4673;53.458;9.940;2023-12-20T03:02:11;4.30;99.90
9271;DHT22;4673;53.458;9.940;2023-12-20T03:04:37;4.30;99.90
9271;DHT22;4673;53.458;9.940;2023-12-20T03:07:02;4.30;99.90
9271;DHT22;4673;53.458;9.940;2023-12-20T03:09:28;4.30;99.90
9271;DHT22;4673;53.458;9.940;2023-12-20T03:11:53;4.40;99.90
9271;DHT22;4673;53.458;9.940;2023-12-20T03:14:19;4.40;99.90
9271;DHT22;4673;53.458;9.940;2023-12-20T03:16:51;4.40;99.90
9271;DHT22;4673;53.458;9.940;2023-12-20T03:19:17;4.50;99.90
9271;DHT22;4673;53.458;9.940;2023-12-20T03:21:44;4.50;99.90
9271;DHT22;4673;53.458;9.940;2023-12-20T03:24:09;4.50;99.90
9271;DHT22;4673;53.458;9.940;2023-12-20T03:26:35;4.60;99.90
9271;DHT22;4673;53.458;9.940;2023-12-20T03:29:00;4.60;99.90
9271;DHT22;4673;53.458;9.940;2023-12-20T03:31:26;4.70;99.90
9271;DHT22;4673;53.458;9.940;2023-12-20T03:33:52;4.70;99.90
9271;DHT22;4673;53.458;9.940;2023-12-20T03:36:19;4.70;99.90
9271;DHT22;4673;53.458;9.940;2023-12-20T03:38:45;4.70;99.90
9271;DHT22;4673;53.458;9.940;2023-12-20T03:41:11;4.80;99.90
9271;DHT22;4673;53.458;9.940;2023-12-20T03:43:37;4.80;99.90
9271;DHT22;4673;53.458;9.940;2023-12-20T03:46:03;4.90;99.90
9271;DHT22;4673;53.458;9.940;2023-12-20T03:48:30;4.80;99.70
9271;DHT22;4673;53.458;9.940;2023-12-20T03:50:56;4.90;99.80
9271;DHT22;4673;53.458;9.940;2023-12-20T03:53:22;4.90;99.60
9271;DHT22;4673;53.458;9.940;2023-12-20T03:55:48;4.90;99.50
9271;DHT22;4673;53.458;9.940;2023-12-20T03:58:13;4.90;99.40
9271;DHT22;4673;53.458;9.940;2023-12-20T04:00:39;4.90;99.20
9271;DHT22;4673;53.458;9.940;2023-12-20T04:03:04;4.90;99.10
9271;DHT22;4673;53.458;9.940;2023-12-20T04:05:30;5.00;98.90
9271;DHT22;4673;53.458;9.940;2023-12-20T04:07:56;5.00;98.60
9271;DHT22;4673;53.458;9.940;2023-12-20T04:10:21;4.90;98.40
9271;DHT22;4673;53.458;9.940;2023-12-20T04:12:47;4.90;98.20
9271;DHT22;4673;53.458;9.940;2023-12-20T04:15:13;4.90;98.20
9271;DHT22;4673;53.458;9.940;2023-12-20T04:17:38;4.90;98.20
9271;DHT22;4673;53.458;9.940;2023-12-20T04:20:05;5.00;98.20
9271;DHT22;4673;53.458;9.940;2023-12-20T04:22:30;5.00;97.80
9271;DHT22;4673;53.458;9.940;2023-12-20T04:24:56;5.00;97.70
9271;DHT22;4673;53.458;9.940;2023-12-20T04:27:22;5.00;97.60
9271;DHT22;4673;53.458;9.940;2023-12-20T04:29:47;5.00;97.50
9271;DHT22;4673;53.458;9.940;2023-12-20T04:32:13;5.00;97.50
9271;DHT22;4673;53.458;9.940;2023-12-20T04:34:38;5.00;97.70
9271;DHT22;4673;53.458;9.940;2023-12-20T04:37:04;5.00;97.60
9271;DHT22;4673;53.458;9.940;2023-12-20T04:39:30;5.00;97.20
9271;DHT22;4673;53.458;9.940;2023-12-20T04:41:55;5.00;97.20
9271;DHT22;4673;53.458;9.940;2023-12-20T04:44:21;5.00;97.20
9271;DHT22;4673;53.458;9.940;2023-12-20T04:46:48;5.10;97.40
9271;DHT22;4673;53.458;9.940;2023-12-20T04:49:13;5.00;96.90
9271;DHT22;4673;53.458;9.940;2023-12-20T04:51:39;5.10;97.10
9271;DHT22;4673;53.458;9.940;2023-12-20T04:54:05;5.00;96.90
9271;DHT22;4673;53.458;9.940;2023-12-20T04:56:30;5.00;96.90
9271;DHT22;4673;53.458;9.940;2023-12-20T04:58:56;5.10;96.90
9271;DHT22;4673;53.458;9.940;2023-12-20T05:01:21;5.10;96.60
9271;DHT22;4673;53.458;9.940;2023-12-20T05:03:47;5.10;96.40
9271;DHT22;4673;53.458;9.940;2023-12-20T05:06:13;5.00;96.00
9271;DHT22;4673;53.458;9.940;2023-12-20T05:08:38;5.00;96.20
9271;DHT22;4673;53.458;9.940;2023-12-20T05:11:04;5.10;96.50
9271;DHT22;4673;53.458;9.940;2023-12-20T05:13:30;5.10;96.50
9271;DHT22;4673;53.458;9.940;2023-12-20T05:15:55;5.20;96.50
9271;DHT22;4673;53.458;9.940;2023-12-20T05:18:21;5.10;96.20
9271;DHT22;4673;53.458;9.940;2023-12-20T05:20:48;5.10;96.40
9271;DHT22;4673;53.458;9.940;2023-12-20T05:23:14;5.10;95.90
9271;DHT22;4673;53.458;9.940;2023-12-20T05:25:40;5.10;96.10
9271;DHT22;4673;53.458;9.940;2023-12-20T05:28:06;5.10;96.20
9271;DHT22;4673;53.458;9.940;2023-12-20T05:30:32;5.20;96.20
9271;DHT22;4673;53.458;9.940;2023-12-20T05:32:57;5.20;96.20
9271;DHT22;4673;53.458;9.940;2023-12-20T05:35:23;5.20;95.70
9271;DHT22;4673;53.458;9.940;2023-12-20T05:37:49;5.30;95.90
9271;DHT22;4673;53.458;9.940;2023-12-20T05:40:15;5.50;95.90
9271;DHT22;4673;53.458;9.940;2023-12-20T05:42:40;5.30;95.50
9271;DHT22;4673;53.458;9.940;2023-12-20T05:45:06;5.40;95.60
9271;DHT22;4673;53.458;9.940;2023-12-20T05:47:32;5.40;95.30
9271;DHT22;4673;53.458;9.940;2023-12-20T05:49:57;5.30;94.90
9271;DHT22;4673;53.458;9.940;2023-12-20T05:52:24;5.40;94.80
9271;DHT22;4673;53.458;9.940;2023-12-20T05:54:49;5.40;94.70
9271;DHT22;4673;53.458;9.940;2023-12-20T05:57:15;5.30;94.70
9271;DHT22;4673;53.458;9.940;2023-12-20T05:59:41;5.30;94.90
9271;DHT22;4673;53.458;9.940;2023-12-20T06:02:06;5.30;95.10
9271;DHT22;4673;53.458;9.940;2023-12-20T06:04:32;5.30;95.00
9271;DHT22;4673;53.458;9.940;2023-12-20T06:06:58;5.20;95.10
9271;DHT22;4673;53.458;9.940;2023-12-20T06:09:25;5.30;95.40
9271;DHT22;4673;53.458;9.940;2023-12-20T06:11:52;5.30;95.60
9271;DHT22;4673;53.458;9.940;2023-12-20T06:14:17;5.30;95.70
9271;DHT22;4673;53.458;9.940;2023-12-20T06:16:43;5.30;95.60
9271;DHT22;4673;53.458;9.940;2023-12-20T06:19:09;5.30;95.70
9271;DHT22;4673;53.458;9.940;2023-12-20T06:21:34;5.30;95.50
9271;DHT22;4673;53.458;9.940;2023-12-20T06:24:00;5.30;95.40
9271;DHT22;4673;53.458;9.940;2023-12-20T06:26:25;5.40;95.20
9271;DHT22;4673;53.458;9.940;2023-12-20T06:28:51;5.20;94.30
9271;DHT22;4673;53.458;9.940;2023-12-20T06:31:17;5.20;94.40
9271;DHT22;4673;53.458;9.940;2023-12-20T06:33:43;5.20;94.80
9271;DHT22;4673;53.458;9.940;2023-12-20T06:36:12;5.20;94.70
9271;DHT22;4673;53.458;9.940;2023-12-20T06:38:38;5.20;94.50
9271;DHT22;4673;53.458;9.940;2023-12-20T06:41:04;5.10;94.70
9271;DHT22;4673;53.458;9.940;2023-12-20T06:43:30;5.30;94.70
9271;DHT22;4673;53.458;9.940;2023-12-20T06:45:56;5.40;94.40
9271;DHT22;4673;53.458;9.940;2023-12-20T06:48:22;5.30;94.20
9271;DHT22;4673;53.458;9.940;2023-12-20T06:50:47;5.30;94.00
9271;DHT22;4673;53.458;9.940;2023-12-20T06:53:13;5.40;93.80
9271;DHT22;4673;53.458;9.940;2023-12-20T06:55:39;5.30;93.80
9271;DHT22;4673;53.458;9.940;2023-12-20T06:58:04;5.30;94.00
9271;DHT22;4673;53.458;9.940;2023-12-20T07:00:30;5.30;94.00
9271;DHT22;4673;53.458;9.940;2023-12-20T07:02:56;5.40;93.80
9271;DHT22;4673;53.458;9.940;2023-12-20T07:05:22;5.30;93.60
9271;DHT22;4673;53.458;9.940;2023-12-20T07:07:48;5.30;93.80
9271;DHT22;4673;53.458;9.940;2023-12-20T07:10:14;5.40;94.00
9271;DHT22;4673;53.458;9.940;2023-12-20T07:12:39;5.40;93.80
9271;DHT22;4673;53.458;9.940;2023-12-20T07:15:05;5.40;93.50
9271;DHT22;4673;53.458;9.940;2023-12-20T07:17:33;5.30;93.10
9271;DHT22;4673;53.458;9.940;2023-12-20T07:19:59;5.40;93.40
9271;DHT22;4673;53.458;9.940;2023-12-20T07:22:31;5.30;93.00
9271;DHT22;4673;53.458;9.940;2023-12-20T07:24:58;5.30;93.20
9271;DHT22;4673;53.458;9.940;2023-12-20T07:27:24;5.30;93.30
9271;DHT22;4673;53.458;9.940;2023-12-20T07:29:50;5.30;93.30
9271;DHT22;4673;53.458;9.940;2023-12-20T07:32:15;5.40;93.00
9271;DHT22;4673;53.458;9.940;2023-12-20T07:34:41;5.40;93.00
9271;DHT22;4673;53.458;9.940;2023-12-20T07:37:07;5.40;93.00
9271;DHT22;4673;53.458;9.940;2023-12-20T07:39:35;5.50;92.90
9271;DHT22;4673;53.458;9.940;2023-12-20T07:42:01;5.50;93.00
9271;DHT22;4673;53.458;9.940;2023-12-20T07:44:26;5.60;92.70
9271;DHT22;4673;53.458;9.940;2023-12-20T07:46:52;5.60;92.50
9271;DHT22;4673;53.458;9.940;2023-12-20T07:49:19;5.70;92.30
9271;DHT22;4673;53.458;9.940;2023-12-20T07:51:44;5.60;91.90
9271;DHT22;4673;53.458;9.940;2023-12-20T07:54:10;5.80;92.10
9271;DHT22;4673;53.458;9.940;2023-12-20T07:56:36;5.90;92.30
9271;DHT22;4673;53.458;9.940;2023-12-20T07:59:01;5.70;91.90
9271;DHT22;4673;53.458;9.940;2023-12-20T08:01:27;5.70;92.40
9271;DHT22;4673;53.458;9.940;2023-12-20T08:03:52;5.70;92.20
9271;DHT22;4673;53.458;9.940;2023-12-20T08:06:18;5.70;92.30
9271;DHT22;4673;53.458;9.940;2023-12-20T08:08:44;5.70;92.60
9271;DHT22;4673;53.458;9.940;2023-12-20T08:11:09;5.70;92.60
9271;DHT22;4673;53.458;9.940;2023-12-20T08:13:35;5.70;92.50
9271;DHT22;4673;53.458;9.940;2023-12-20T08:16:00;5.70;92.60
9271;DHT22;4673;53.458;9.940;2023-12-20T08:18:28;5.70;92.80
9271;DHT22;4673;53.458;9.940;2023-12-20T08:20:54;5.80;92.40
9271;DHT22;4673;53.458;9.940;2023-12-20T08:23:20;5.90;92.40
9271;DHT22;4673;53.458;9.940;2023-12-20T08:25:49;5.90;92.20
9271;DHT22;4673;53.458;9.940;2023-12-20T08:28:15;5.90;91.70
9271;DHT22;4673;53.458;9.940;2023-12-20T08:30:40;6.00;91.50
9271;DHT22;4673;53.458;9.940;2023-12-20T08:33:07;5.90;90.70
9271;DHT22;4673;53.458;9.940;2023-12-20T08:35:40;5.90;90.40
9271;DHT22;4673;53.458;9.940;2023-12-20T08:38:06;6.10;90.60
9271;DHT22;4673;53.458;9.940;2023-12-20T08:40:32;6.20;90.30
9271;DHT22;4673;53.458;9.940;2023-12-20T08:42:57;6.20;89.30
9271;DHT22;4673;53.458;9.940;2023-12-20T08:45:23;6.30;89.50
9271;DHT22;4673;53.458;9.940;2023-12-20T08:47:50;6.30;89.00
9271;DHT22;4673;53.458;9.940;2023-12-20T08:50:15;6.40;88.10
9271;DHT22;4673;53.458;9.940;2023-12-20T08:52:41;6.50;87.60
9271;DHT22;4673;53.458;9.940;2023-12-20T08:55:07;6.60;87.10
9271;DHT22;4673;53.458;9.940;2023-12-20T08:57:33;6.60;87.50
9271;DHT22;4673;53.458;9.940;2023-12-20T08:59:59;6.50;87.60
9271;DHT22;4673;53.458;9.940;2023-12-20T09:02:25;6.40;87.90
9271;DHT22;4673;53.458;9.940;2023-12-20T09:04:50;6.30;88.40
9271;DHT22;4673;53.458;9.940;2023-12-20T09:07:26;6.20;88.90
9271;DHT22;4673;53.458;9.940;2023-12-20T09:09:52;6.10;89.70
9271;DHT22;4673;53.458;9.940;2023-12-20T09:12:21;6.10;90.40
9271;DHT22;4673;53.458;9.940;2023-12-20T09:14:47;6.00;90.70
9271;DHT22;4673;53.458;9.940;2023-12-20T09:17:13;5.90;90.70
9271;DHT22;4673;53.458;9.940;2023-12-20T09:19:39;5.70;90.40
9271;DHT22;4673;53.458;9.940;2023-12-20T09:22:05;5.80;90.90
9271;DHT22;4673;53.458;9.940;2023-12-20T09:24:31;5.60;91.20
9271;DHT22;4673;53.458;9.940;2023-12-20T09:26:57;5.50;91.50
9271;DHT22;4673;53.458;9.940;2023-12-20T09:29:23;5.50;92.00
9271;DHT22;4673;53.458;9.940;2023-12-20T09:31:50;5.50;92.80
9271;DHT22;4673;53.458;9.940;2023-12-20T09:34:16;5.40;92.70
9271;DHT22;4673;53.458;9.940;2023-12-20T09:36:42;5.40;93.10
9271;DHT22;4673;53.458;9.940;2023-12-20T09:39:13;5.40;93.40
9271;DHT22;4673;53.458;9.940;2023-12-20T09:41:43;5.40;93.70
9271;DHT22;4673;53.458;9.940;2023-12-20T09:44:14;5.30;94.00
9271;DHT22;4673;53.458;9.940;2023-12-20T09:46:43;5.30;94.20
9271;DHT22;4673;53.458;9.940;2023-12-20T09:49:08;5.30;94.30
9271;DHT22;4673;53.458;9.940;2023-12-20T09:51:34;5.30;94.60
9271;DHT22;4673;53.458;9.940;2023-12-20T09:54:03;5.40;94.90
9271;DHT22;4673;53.458;9.940;2023-12-20T09:56:30;5.50;95.00
9271;DHT22;4673;53.458;9.940;2023-12-20T09:58:56;5.50;95.20
9271;DHT22;4673;53.458;9.940;2023-12-20T10:01:21;5.40;94.90
9271;DHT22;4673;53.458;9.940;2023-12-20T10:03:47;5.40;94.80
9271;DHT22;4673;53.458;9.940;2023-12-20T10:06:13;5.40;94.80
9271;DHT22;4673;53.458;9.940;2023-12-20T10:08:39;5.40;94.50
9271;DHT22;4673;53.458;9.940;2023-12-20T10:11:05;5.30;94.40
9271;DHT22;4673;53.458;9.940;2023-12-20T10:13:31;5.30;94.20
9271;DHT22;4673;53.458;9.940;2023-12-20T10:15:56;5.30;94.30
9271;DHT22;4673;53.458;9.940;2023-12-20T10:18:23;5.40;94.80
9271;DHT22;4673;53.458;9.940;2023-12-20T10:20:49;5.40;94.80
9271;DHT22;4673;53.458;9.940;2023-12-20T10:23:15;5.30;93.60
9271;DHT22;4673;53.458;9.940;2023-12-20T10:25:41;5.40;93.20
9271;DHT22;4673;53.458;9.940;2023-12-20T10:28:16;5.40;93.00
9271;DHT22;4673;53.458;9.940;2023-12-20T10:30:48;5.40;92.70
9271;DHT22;4673;53.458;9.940;2023-12-20T10:33:13;5.30;92.50
9271;DHT22;4673;53.458;9.940;2023-12-20T10:35:48;5.30;92.10
9271;DHT22;4673;53.458;9.940;2023-12-20T10:38:15;5.60;92.40
9271;DHT22;4673;53.458;9.940;2023-12-20T10:40:40;5.30;92.40
9271;DHT22;4673;53.458;9.940;2023-12-20T10:43:07;5.30;92.10
9271;DHT22;4673;53.458;9.940;2023-12-20T10:45:34;5.30;91.30
9271;DHT22;4673;53.458;9.940;2023-12-20T10:48:01;5.20;91.00
9271;DHT22;4673;53.458;9.940;2023-12-20T10:50:28;5.30;91.20
9271;DHT22;4673;53.458;9.940;2023-12-20T10:52:54;5.30;91.20
9271;DHT22;4673;53.458;9.940;2023-12-20T10:55:22;5.40;90.90
9271;DHT22;4673;53.458;9.940;2023-12-20T10:57:50;5.40;90.60
9271;DHT22;4673;53.458;9.940;2023-12-20T11:00:18;5.50;90.30
9271;DHT22;4673;53.458;9.940;2023-12-20T11:02:44;5.50;89.90
9271;DHT22;4673;53.458;9.940;2023-12-20T11:08:27;5.40;89.20
9271;DHT22;4673;53.458;9.940;2023-12-20T11:11:29;5.50;89.50
9271;DHT22;4673;53.458;9.940;2023-12-20T11:14:06;5.40;88.90
9271;DHT22;4673;53.458;9.940;2023-12-20T11:16:37;5.40;88.50
9271;DHT22;4673;53.458;9.940;2023-12-20T11:19:06;5.40;88.90
9271;DHT22;4673;53.458;9.940;2023-12-20T11:21:32;5.30;88.50
9271;DHT22;4673;53.458;9.940;2023-12-20T11:23:59;5.60;88.70
9271;DHT22;4673;53.458;9.940;2023-12-20T11:26:29;5.30;88.70
9271;DHT22;4673;53.458;9.940;2023-12-20T11:29:34;5.30;88.50
9271;DHT22;4673;53.458;9.940;2023-12-20T11:34:59;5.30;88.70
9271;DHT22;4673;53.458;9.940;2023-12-20T11:37:29;5.60;88.70
9271;DHT22;4673;53.458;9.940;2023-12-20T11:40:05;5.40;89.10
9271;DHT22;4673;53.458;9.940;2023-12-20T11:42:38;5.60;89.00
9271;DHT22;4673;53.458;9.940;2023-12-20T11:45:04;5.70;88.40
9271;DHT22;4673;53.458;9.940;2023-12-20T11:47:31;5.90;88.70
9271;DHT22;4673;53.458;9.940;2023-12-20T11:49:57;6.00;87.60
9271;DHT22;4673;53.458;9.940;2023-12-20T11:52:22;6.50;87.90
9271;DHT22;4673;53.458;9.940;2023-12-20T11:54:48;6.50;86.50
9271;DHT22;4673;53.458;9.940;2023-12-20T11:57:14;6.30;84.90
9271;DHT22;4673;53.458;9.940;2023-12-20T11:59:40;6.60;85.00
9271;DHT22;4673;53.458;9.940;2023-12-20T12:02:05;6.50;84.20
9271;DHT22;4673;53.458;9.940;2023-12-20T12:04:31;6.60;83.90
9271;DHT22;4673;53.458;9.940;2023-12-20T12:06:57;6.50;81.20
9271;DHT22;4673;53.458;9.940;2023-12-20T12:09:23;6.40;82.30
9271;DHT22;4673;53.458;9.940;2023-12-20T12:11:49;6.30;82.90
9271;DHT22;4673;53.458;9.940;2023-12-20T12:14:14;6.50;83.00
9271;DHT22;4673;53.458;9.940;2023-12-20T12:16:42;5.90;81.30
9271;DHT22;4673;53.458;9.940;2023-12-20T12:19:23;5.80;81.40
9271;DHT22;4673;53.458;9.940;2023-12-20T12:21:50;5.60;82.00
9271;DHT22;4673;53.458;9.940;2023-12-20T12:24:20;5.50;82.00
9271;DHT22;4673;53.458;9.940;2023-12-20T12:26:52;5.40;81.70
9271;DHT22;4673;53.458;9.940;2023-12-20T12:29:20;5.40;82.40
9271;DHT22;4673;53.458;9.940;2023-12-20T12:31:46;5.30;82.70
9271;DHT22;4673;53.458;9.940;2023-12-20T12:34:12;5.30;82.70
9271;DHT22;4673;53.458;9.940;2023-12-20T12:36:37;5.20;81.90
9271;DHT22;4673;53.458;9.940;2023-12-20T12:39:03;5.30;82.60
9271;DHT22;4673;53.458;9.940;2023-12-20T12:41:30;5.30;82.60
9271;DHT22;4673;53.458;9.940;2023-12-20T12:43:56;5.40;82.30
9271;DHT22;4673;53.458;9.940;2023-12-20T12:46:21;5.40;82.20
9271;DHT22;4673;53.458;9.940;2023-12-20T12:48:47;5.40;82.00
9271;DHT22;4673;53.458;9.940;2023-12-20T12:51:13;5.40;82.00
9271;DHT22;4673;53.458;9.940;2023-12-20T12:53:39;5.40;81.50
9271;DHT22;4673;53.458;9.940;2023-12-20T12:56:05;5.40;81.50
9271;DHT22;4673;53.458;9.940;2023-12-20T12:58:31;5.50;81.50
9271;DHT22;4673;53.458;9.940;2023-12-20T13:00:57;5.50;81.40
9271;DHT22;4673;53.458;9.940;2023-12-20T13:03:23;5.40;80.90
9271;DHT22;4673;53.458;9.940;2023-12-20T13:05:49;5.70;81.30
9271;DHT22;4673;53.458;9.940;2023-12-20T13:08:15;5.80;79.80
9271;DHT22;4673;53.458;9.940;2023-12-20T13:10:41;5.90;79.30
9271;DHT22;4673;53.458;9.940;2023-12-20T13:13:06;5.90;76.20
9271;DHT22;4673;53.458;9.940;2023-12-20T13:15:32;5.90;76.70
9271;DHT22;4673;53.458;9.940;2023-12-20T13:17:58;5.90;76.60
9271;DHT22;4673;53.458;9.940;2023-12-20T13:20:23;5.90;76.30
9271;DHT22;4673;53.458;9.940;2023-12-20T13:22:49;5.90;75.80
9271;DHT22;4673;53.458;9.940;2023-12-20T13:25:15;6.20;75.20
9271;DHT22;4673;53.458;9.940;2023-12-20T13:27:41;5.80;75.20
9271;DHT22;4673;53.458;9.940;2023-12-20T13:30:07;5.80;75.80
9271;DHT22;4673;53.458;9.940;2023-12-20T13:32:32;5.80;75.30
9271;DHT22;4673;53.458;9.940;2023-12-20T13:34:58;5.70;74.90
9271;DHT22;4673;53.458;9.940;2023-12-20T13:37:24;5.70;75.00
9271;DHT22;4673;53.458;9.940;2023-12-20T13:39:49;5.60;75.20
9271;DHT22;4673;53.458;9.940;2023-12-20T13:42:15;5.80;76.00
9271;DHT22;4673;53.458;9.940;2023-12-20T13:44:41;5.70;76.30
9271;DHT22;4673;53.458;9.940;2023-12-20T13:47:06;5.70;75.90
9271;DHT22;4673;53.458;9.940;2023-12-20T13:49:32;5.70;76.30
9271;DHT22;4673;53.458;9.940;2023-12-20T13:51:58;5.70;76.40
9271;DHT22;4673;53.458;9.940;2023-12-20T13:54:24;5.70;76.50
9271;DHT22;4673;53.458;9.940;2023-12-20T13:56:50;5.70;76.60
9271;DHT22;4673;53.458;9.940;2023-12-20T13:59:15;5.80;76.20
9271;DHT22;4673;53.458;9.940;2023-12-20T14:01:41;5.70;75.30
9271;DHT22;4673;53.458;9.940;2023-12-20T14:04:07;5.80;75.60
9271;DHT22;4673;53.458;9.940;2023-12-20T14:06:33;5.60;75.90
9271;DHT22;4673;53.458;9.940;2023-12-20T14:08:59;5.60;76.00
9271;DHT22;4673;53.458;9.940;2023-12-20T14:11:27;5.50;76.20
9271;DHT22;4673;53.458;9.940;2023-12-20T14:13:53;5.40;75.90
9271;DHT22;4673;53.458;9.940;2023-12-20T14:16:23;5.40;75.90
9271;DHT22;4673;53.458;9.940;2023-12-20T14:18:49;5.40;76.10
9271;DHT22;4673;53.458;9.940;2023-12-20T14:21:17;5.40;76.50
9271;DHT22;4673;53.458;9.940;2023-12-20T14:23:43;5.40;76.10
9271;DHT22;4673;53.458;9.940;2023-12-20T14:26:09;5.20;76.30
9271;DHT22;4673;53.458;9.940;2023-12-20T14:28:41;5.20;76.40
9271;DHT22;4673;53.458;9.940;2023-12-20T14:31:06;5.30;76.40
9271;DHT22;4673;53.458;9.940;2023-12-20T14:33:32;5.30;76.40
9271;DHT22;4673;53.458;9.940;2023-12-20T14:35:58;5.10;76.30
9271;DHT22;4673;53.458;9.940;2023-12-20T14:38:23;5.10;76.30
9271;DHT22;4673;53.458;9.940;2023-12-20T14:40:49;5.10;76.70
9271;DHT22;4673;53.458;9.940;2023-12-20T14:43:16;5.10;76.90
9271;DHT22;4673;53.458;9.940;2023-12-20T14:45:42;5.00;76.30
9271;DHT22;4673;53.458;9.940;2023-12-20T14:48:07;5.00;76.50
9271;DHT22;4673;53.458;9.940;2023-12-20T14:50:33;5.00;76.30
9271;DHT22;4673;53.458;9.940;2023-12-20T14:52:59;5.00;76.50
9271;DHT22;4673;53.458;9.940;2023-12-20T14:55:25;4.90;76.60
9271;DHT22;4673;53.458;9.940;2023-12-20T14:57:53;4.80;76.90
9271;DHT22;4673;53.458;9.940;2023-12-20T15:00:18;4.70;77.20
9271;DHT22;4673;53.458;9.940;2023-12-20T15:02:45;4.80;77.40
9271;DHT22;4673;53.458;9.940;2023-12-20T15:05:11;4.80;77.70
9271;DHT22;4673;53.458;9.940;2023-12-20T15:07:37;4.80;77.80
9271;DHT22;4673;53.458;9.940;2023-12-20T15:10:03;4.80;77.90
9271;DHT22;4673;53.458;9.940;2023-12-20T15:12:29;4.80;78.20
9271;DHT22;4673;53.458;9.940;2023-12-20T15:14:54;4.80;78.40
9271;DHT22;4673;53.458;9.940;2023-12-20T15:17:21;4.90;79.10
9271;DHT22;4673;53.458;9.940;2023-12-20T15:19:46;4.90;78.80
9271;DHT22;4673;53.458;9.940;2023-12-20T15:22:12;4.80;78.90
9271;DHT22;4673;53.458;9.940;2023-12-20T15:24:38;4.80;78.90
9271;DHT22;4673;53.458;9.940;2023-12-20T15:27:06;4.80;79.10
9271;DHT22;4673;53.458;9.940;2023-12-20T15:29:31;4.60;79.10
9271;DHT22;4673;53.458;9.940;2023-12-20T15:31:57;5.00;79.20
9271;DHT22;4673;53.458;9.940;2023-12-20T15:34:23;4.80;79.40
9271;DHT22;4673;53.458;9.940;2023-12-20T15:36:49;4.80;79.50
9271;DHT22;4673;53.458;9.940;2023-12-20T15:39:14;4.80;79.10
9271;DHT22;4673;53.458;9.940;2023-12-20T15:41:40;4.90;79.10
9271;DHT22;4673;53.458;9.940;2023-12-20T15:44:06;4.60;79.30
9271;DHT22;4673;53.458;9.940;2023-12-20T15:46:31;4.60;79.40
9271;DHT22;4673;53.458;9.940;2023-12-20T15:48:57;4.60;79.30
9271;DHT22;4673;53.458;9.940;2023-12-20T15:51:23;4.50;79.30
9271;DHT22;4673;53.458;9.940;2023-12-20T15:53:49;4.50;79.50
9271;DHT22;4673;53.458;9.940;2023-12-20T15:56:16;4.40;79.40
9271;DHT22;4673;53.458;9.940;2023-12-20T15:58:42;4.40;79.70
9271;DHT22;4673;53.458;9.940;2023-12-20T16:01:07;4.50;79.60
9271;DHT22;4673;53.458;9.940;2023-12-20T16:03:34;4.40;79.50
9271;DHT22;4673;53.458;9.940;2023-12-20T16:05:59;4.40;79.30
9271;DHT22;4673;53.458;9.940;2023-12-20T16:08:25;4.40;79.50
9271;DHT22;4673;53.458;9.940;2023-12-20T16:10:51;4.30;79.70
9271;DHT22;4673;53.458;9.940;2023-12-20T16:13:17;4.30;79.80
9271;DHT22;4673;53.458;9.940;2023-12-20T16:15:42;4.40;80.00
9271;DHT22;4673;53.458;9.940;2023-12-20T16:18:09;4.40;80.10